NCAR-RAP Real-Time Weather Data

Output produced by METARs form (20 January 2020  10:16 UTC)
found at http://weather.rap.ucar.edu/surface/
 
RJKA 201000Z 34006KT 310V010 9999 FEW040 BKN050 BKN060 16/08 Q1021
 
ROAH 201000Z 10003KT 040V160 9999 FEW020 SCT060 BKN090 17/13 Q1022 RMK 2CU020 4SC060 7AC090 A3018
 
RODN 200956Z AUTO 08004KT 10SM SCT036 BKN043 BKN060 OVC090 15/13 A3018 RMK AO2 SLP228 T01520130 $
 
ROIG 201000Z 02009KT 9999 FEW022 BKN070 17/14 Q1022
 
ROMY 201000Z 36005KT 9999 FEW018 BKN070 17/14 Q1022
 
RORS 201000Z 01013KT 9999 SCT026 BKN080 17/13 Q1022